createdAt,value
2022-12-29T00:03:54.977Z,65.93
2022-12-29T00:07:59.724Z,76.47
2022-12-29T00:12:03.576Z,71.50
2022-12-29T00:16:08.406Z,66.57
2022-12-29T00:20:29.245Z,65.50
2022-12-29T00:24:52.158Z,61.00
2022-12-29T00:29:13.293Z,64.75
2022-12-29T00:33:37.472Z,61.78
2022-12-29T00:38:07.328Z,61.83
2022-12-29T00:42:39.621Z,66.25
2022-12-29T00:46:44.089Z,64.20
2022-12-29T00:54:48.529Z,66.13
2022-12-29T00:58:50.978Z,59.85
2022-12-29T01:02:53.398Z,65.60
2022-12-29T01:06:55.986Z,57.28
2022-12-29T01:11:06.422Z,62.72
2022-12-29T01:15:11.115Z,74.53
2022-12-29T01:19:14.516Z,62.17
2022-12-29T01:23:17.173Z,76.95
2022-12-29T01:27:21.107Z,67.07
2022-12-29T01:31:23.344Z,60.00
2022-12-29T01:35:26.860Z,65.20
2022-12-29T01:39:29.016Z,73.88
2022-12-29T01:43:40.620Z,64.20
2022-12-29T01:47:45.229Z,56.90
2022-12-29T01:51:59.099Z,53.25
2022-12-29T01:56:07.666Z,79.53
2022-12-29T02:00:13.441Z,64.30
2022-12-29T02:04:16.693Z,166.02
2022-12-29T02:08:24.832Z,213.57
2022-12-29T02:12:27.148Z,132.13
2022-12-29T02:17:08.195Z,150.30
2022-12-29T02:21:56.334Z,199.00
2022-12-29T02:26:32.680Z,206.10
2022-12-29T02:30:38.402Z,345.58
2022-12-29T02:34:49.058Z,163.63
2022-12-29T02:39:26.645Z,137.93
2022-12-29T02:43:40.835Z,125.55
2022-12-29T02:47:54.196Z,244.30
2022-12-29T02:52:23.271Z,158.75
2022-12-29T02:56:26.244Z,213.07
2022-12-29T03:00:29.890Z,195.00
2022-12-29T03:05:16.224Z,305.63
2022-12-29T03:09:51.906Z,288.50
2022-12-29T03:14:25.493Z,238.65
2022-12-29T03:18:42.998Z,268.35
2022-12-29T03:22:49.340Z,248.23
2022-12-29T03:27:00.438Z,100.57
2022-12-29T03:31:09.183Z,72.60
2022-12-29T03:35:15.490Z,63.63
2022-12-29T03:39:21.765Z,64.20
2022-12-29T03:43:24.844Z,54.15
2022-12-29T03:47:27.117Z,65.80
2022-12-29T03:51:29.489Z,60.30
2022-12-29T03:55:32.742Z,66.15
2022-12-29T03:59:36.413Z,58.40
2022-12-29T04:03:38.720Z,57.25
2022-12-29T04:07:41.041Z,61.40
2022-12-29T04:11:43.608Z,60.00
2022-12-29T04:15:46.413Z,62.78
2022-12-29T04:19:49.804Z,59.75
2022-12-29T04:23:52.550Z,57.07
2022-12-29T04:27:54.884Z,60.20
2022-12-29T04:32:15.442Z,43.45
2022-12-29T04:36:29.743Z,49.13
2022-12-29T04:40:32.620Z,50.90
2022-12-29T04:44:37.619Z,46.78
2022-12-29T04:49:05.710Z,49.45
2022-12-29T04:53:28.349Z,48.75
2022-12-29T04:57:30.875Z,54.08
2022-12-29T05:01:35.357Z,45.60
2022-12-29T05:05:37.795Z,48.85
2022-12-29T05:09:40.403Z,51.78
2022-12-29T05:13:42.634Z,45.95
2022-12-29T05:17:45.002Z,47.80
2022-12-29T05:21:47.738Z,45.78
2022-12-29T05:25:49.949Z,42.75
2022-12-29T05:30:20.498Z,43.75
2022-12-29T05:34:23.587Z,35.10
2022-12-29T05:38:26.067Z,34.85
2022-12-29T05:42:28.397Z,37.97
2022-12-29T05:46:49.314Z,35.67
2022-12-29T05:50:55.952Z,33.88
2022-12-29T05:55:08.218Z,27.67
2022-12-29T05:59:12.269Z,24.75
2022-12-29T06:03:15.372Z,24.73
2022-12-29T06:07:19.415Z,22.20
2022-12-29T06:11:23.587Z,21.63
2022-12-29T06:20:01.593Z,23.65
2022-12-29T06:24:04.391Z,24.90
2022-12-29T06:28:06.988Z,27.98
2022-12-29T06:32:10.792Z,25.15
2022-12-29T06:36:17.747Z,25.52
2022-12-29T06:40:21.526Z,29.77
2022-12-29T06:44:42.925Z,30.73
2022-12-29T06:48:45.814Z,38.40
2022-12-29T06:52:48.036Z,38.63
2022-12-29T06:56:50.139Z,46.75
2022-12-29T07:00:52.824Z,40.33
2022-12-29T07:04:55.103Z,38.53
2022-12-29T07:08:58.679Z,33.42
2022-12-29T07:13:00.965Z,35.67
2022-12-29T07:17:06.512Z,38.13
2022-12-29T07:21:08.941Z,33.75
2022-12-29T07:25:11.300Z,51.33
2022-12-29T07:29:13.464Z,62.80
2022-12-29T07:33:15.646Z,42.53
2022-12-29T07:37:17.970Z,32.83
2022-12-29T07:41:20.326Z,36.15
2022-12-29T07:45:22.605Z,35.90
2022-12-29T07:49:38.348Z,42.85
2022-12-29T07:53:40.498Z,32.95
2022-12-29T07:57:42.734Z,40.92
2022-12-29T08:01:45.008Z,33.95
2022-12-29T08:05:47.401Z,27.50
2022-12-29T08:09:49.568Z,31.55
2022-12-29T08:13:52.010Z,27.83
2022-12-29T08:17:54.273Z,28.17
2022-12-29T08:21:57.814Z,25.67
2022-12-29T08:26:01.585Z,26.30
2022-12-29T08:30:04.936Z,25.63
2022-12-29T08:34:10.353Z,25.50
2022-12-29T08:38:13.263Z,22.50
2022-12-29T08:42:15.727Z,25.65
2022-12-29T08:46:18.331Z,24.70
2022-12-29T08:50:21.771Z,25.92
2022-12-29T08:54:24.744Z,27.67
2022-12-29T08:58:28.180Z,28.67
2022-12-29T09:02:30.645Z,26.17
2022-12-29T09:06:39.680Z,24.80
2022-12-29T09:10:42.339Z,25.50
2022-12-29T09:14:45.348Z,24.40
2022-12-29T09:18:47.745Z,27.70
2022-12-29T09:22:50.759Z,25.35
2022-12-29T09:26:53.439Z,19.65
2022-12-29T09:30:56.454Z,19.88
2022-12-29T09:34:58.794Z,19.80
2022-12-29T09:39:00.989Z,19.52
2022-12-29T09:43:28.689Z,22.40
2022-12-29T09:47:33.158Z,17.45
2022-12-29T09:51:39.331Z,20.02
2022-12-29T09:55:52.176Z,20.63
2022-12-29T10:04:18.504Z,16.42
2022-12-29T10:09:28.553Z,13.77
2022-12-29T10:14:22.759Z,12.35
2022-12-29T10:19:18.998Z,16.00
2022-12-29T10:23:53.258Z,16.48
2022-12-29T10:28:10.314Z,13.05
2022-12-29T10:32:35.841Z,13.45
2022-12-29T10:36:50.103Z,12.55
2022-12-29T10:41:27.824Z,13.98
2022-12-29T10:45:41.074Z,19.77
2022-12-29T10:49:56.525Z,13.13
2022-12-29T10:58:50.235Z,11.05
2022-12-29T11:03:47.468Z,12.35
2022-12-29T11:12:43.157Z,11.73
2022-12-29T11:17:07.187Z,9.35
2022-12-29T11:21:47.379Z,10.13
2022-12-29T11:26:22.182Z,10.80
2022-12-29T11:30:45.371Z,7.18
2022-12-29T11:34:54.400Z,9.63
2022-12-29T11:39:15.324Z,10.20
2022-12-29T11:43:55.061Z,11.43
2022-12-29T11:48:32.169Z,7.32
2022-12-29T11:52:40.844Z,10.68
2022-12-29T11:56:56.075Z,9.48
2022-12-29T12:01:30.917Z,7.10
2022-12-29T12:06:08.263Z,6.97
2022-12-29T12:10:32.791Z,5.40
2022-12-29T12:15:07.056Z,8.18
2022-12-29T12:19:59.489Z,5.45
2022-12-29T12:24:42.856Z,5.05
2022-12-29T12:29:16.105Z,6.18
2022-12-29T12:33:48.933Z,6.03
2022-12-29T12:43:14.910Z,8.82
2022-12-29T12:47:54.101Z,5.55
2022-12-29T12:52:35.499Z,5.05
2022-12-29T12:57:21.048Z,3.95
2022-12-29T13:02:05.351Z,3.75
2022-12-29T13:06:51.221Z,4.90
2022-12-29T13:11:27.943Z,3.65
2022-12-29T13:15:57.316Z,4.00
2022-12-29T13:20:27.513Z,4.15
2022-12-29T13:25:08.853Z,6.28
2022-12-29T13:29:33.269Z,3.95
2022-12-29T13:34:05.452Z,2.67
2022-12-29T13:43:23.643Z,5.93
2022-12-29T13:47:47.801Z,7.15
2022-12-29T13:52:02.396Z,3.03
2022-12-29T13:56:32.829Z,5.95
2022-12-29T14:01:04.341Z,6.90
2022-12-29T14:05:23.965Z,9.52
2022-12-29T14:09:59.040Z,4.60
2022-12-29T14:14:28.062Z,5.55
2022-12-29T14:18:35.762Z,7.03
2022-12-29T14:23:17.228Z,9.18
2022-12-29T14:27:23.381Z,6.15
2022-12-29T14:31:36.516Z,6.70
2022-12-29T14:35:49.790Z,5.57
2022-12-29T14:40:24.448Z,6.45
2022-12-29T14:49:04.326Z,8.90
2022-12-29T14:58:01.258Z,4.03
2022-12-29T15:02:26.370Z,4.22
2022-12-29T15:06:41.623Z,4.45
2022-12-29T15:11:01.750Z,4.68
2022-12-29T15:15:22.690Z,8.60
2022-12-29T15:19:30.810Z,5.57
2022-12-29T15:23:37.308Z,5.47
2022-12-29T15:27:46.944Z,5.90
2022-12-29T15:31:50.178Z,3.92
2022-12-29T15:40:00.597Z,2.72
2022-12-29T15:44:10.894Z,6.10
2022-12-29T15:48:22.658Z,5.38
2022-12-29T15:52:34.611Z,3.80
2022-12-29T15:56:36.931Z,4.32
2022-12-29T16:00:39.395Z,2.10
2022-12-29T16:05:09.335Z,2.00
2022-12-29T16:09:17.227Z,3.83
2022-12-29T16:13:19.304Z,3.78
2022-12-29T16:17:28.014Z,10.90
2022-12-29T16:21:35.283Z,6.28
2022-12-29T16:25:38.556Z,5.97
2022-12-29T16:29:42.056Z,3.10
2022-12-29T16:33:51.132Z,6.43
2022-12-29T16:38:15.244Z,4.70
2022-12-29T16:42:39.489Z,7.47
2022-12-29T16:47:06.148Z,6.07
2022-12-29T16:51:38.734Z,5.82
2022-12-29T16:55:58.535Z,4.68
2022-12-29T17:00:04.820Z,6.78
2022-12-29T17:04:11.755Z,2.38
2022-12-29T17:08:24.223Z,3.22
2022-12-29T17:12:31.141Z,4.85
2022-12-29T17:16:33.625Z,4.10
2022-12-29T17:20:36.229Z,6.18
2022-12-29T17:24:38.643Z,5.53
2022-12-29T17:28:41.639Z,4.43
2022-12-29T17:32:49.929Z,5.10
2022-12-29T17:36:52.160Z,7.72
2022-12-29T17:40:54.661Z,6.60
2022-12-29T17:44:56.962Z,6.13
2022-12-29T17:48:59.188Z,5.15
2022-12-29T17:53:07.643Z,6.65
2022-12-29T17:57:13.724Z,4.95
2022-12-29T18:01:21.889Z,7.13
2022-12-29T18:05:27.391Z,13.93
2022-12-29T18:09:29.623Z,13.32
2022-12-29T18:13:45.579Z,6.22
2022-12-29T18:17:49.362Z,7.03
2022-12-29T18:21:51.486Z,4.75
2022-12-29T18:26:01.820Z,6.80
2022-12-29T18:30:04.696Z,7.55
2022-12-29T18:34:15.615Z,10.85
2022-12-29T18:38:18.520Z,5.60
2022-12-29T18:42:24.552Z,21.15
2022-12-29T18:46:27.031Z,24.00
2022-12-29T18:50:29.367Z,8.82
2022-12-29T18:54:33.851Z,15.90
2022-12-29T19:02:38.599Z,9.63
2022-12-29T19:06:41.262Z,9.75
2022-12-29T19:10:44.618Z,8.43
2022-12-29T19:14:47.057Z,8.07
2022-12-29T19:19:07.863Z,7.53
2022-12-29T19:23:13.662Z,8.75
2022-12-29T19:27:16.267Z,7.70
2022-12-29T19:31:18.530Z,10.73
2022-12-29T19:35:22.991Z,15.02
2022-12-29T19:39:25.579Z,25.80
2022-12-29T19:43:27.991Z,14.65
2022-12-29T19:47:32.072Z,10.00
2022-12-29T19:51:34.732Z,4.75
2022-12-29T19:55:37.317Z,6.13
2022-12-29T19:59:40.885Z,10.73
2022-12-29T20:03:43.466Z,17.90
2022-12-29T20:07:46.149Z,13.85
2022-12-29T20:11:48.436Z,12.18
2022-12-29T20:15:50.721Z,11.68
2022-12-29T20:19:52.970Z,8.75
2022-12-29T20:23:56.713Z,11.30
2022-12-29T20:27:58.933Z,12.80
2022-12-29T20:32:01.260Z,9.15
2022-12-29T20:36:10.780Z,13.07
2022-12-29T20:40:13.217Z,13.27
2022-12-29T20:44:15.416Z,12.18
2022-12-29T20:48:17.823Z,16.67
2022-12-29T20:52:20.130Z,16.65
2022-12-29T20:56:25.879Z,8.77
2022-12-29T21:00:30.850Z,13.88
2022-12-29T21:05:12.825Z,10.70
2022-12-29T21:09:03.280Z,12.77
2022-12-29T21:13:07.676Z,15.55
2022-12-29T21:17:09.931Z,12.65
2022-12-29T21:21:18.331Z,22.05
2022-12-29T21:25:20.484Z,16.60
2022-12-29T21:29:22.693Z,13.18
2022-12-29T21:33:24.982Z,37.38
2022-12-29T21:37:27.112Z,15.90
2022-12-29T21:41:34.866Z,13.63
2022-12-29T21:45:43.921Z,11.85
2022-12-29T21:49:54.948Z,16.63
2022-12-29T21:54:21.259Z,16.95
2022-12-29T21:58:42.044Z,11.20
2022-12-29T22:03:02.883Z,14.73
2022-12-29T22:07:25.854Z,13.10
2022-12-29T22:11:46.891Z,16.10
2022-12-29T22:15:49.042Z,15.90
2022-12-29T22:19:51.342Z,11.63
2022-12-29T22:23:53.547Z,11.55
2022-12-29T22:27:59.436Z,15.30
2022-12-29T22:32:02.221Z,14.38
2022-12-29T22:36:04.713Z,12.15
2022-12-29T22:40:09.997Z,14.68
2022-12-29T22:44:12.156Z,13.07
2022-12-29T22:48:14.473Z,11.85
2022-12-29T22:52:16.916Z,13.90
2022-12-29T22:56:19.237Z,15.85
2022-12-29T23:00:21.411Z,15.55
2022-12-29T23:05:01.693Z,14.63
2022-12-29T23:08:47.472Z,10.38
2022-12-29T23:12:49.891Z,13.02
2022-12-29T23:16:52.106Z,10.18
2022-12-29T23:20:54.419Z,11.30
2022-12-29T23:24:56.684Z,14.65
2022-12-29T23:29:00.769Z,12.15
2022-12-29T23:33:03.001Z,18.27
2022-12-29T23:37:05.302Z,10.95
2022-12-29T23:41:08.543Z,16.95
2022-12-29T23:45:11.632Z,13.05
2022-12-29T23:49:13.909Z,12.00
2022-12-29T23:53:16.230Z,14.63
2022-12-29T23:57:18.512Z,22.25
